sensor_id;sensor_type;location;lat;lon;timestamp;P1;durP1;ratioP1;P2;durP2;ratioP2
3359;SDS011;1693;49.602;11.046;2024-02-21T00:01:59;6.67;;;2.47;;
3359;SDS011;1693;49.602;11.046;2024-02-21T00:04:26;4.23;;;1.90;;
3359;SDS011;1693;49.602;11.046;2024-02-21T00:06:55;3.63;;;2.00;;
3359;SDS011;1693;49.602;11.046;2024-02-21T00:09:22;5.67;;;1.40;;
3359;SDS011;1693;49.602;11.046;2024-02-21T00:11:49;1.90;;;1.50;;
3359;SDS011;1693;49.602;11.046;2024-02-21T00:14:17;3.20;;;1.70;;
3359;SDS011;1693;49.602;11.046;2024-02-21T00:16:44;2.53;;;1.80;;
3359;SDS011;1693;49.602;11.046;2024-02-21T00:19:12;6.80;;;1.80;;
3359;SDS011;1693;49.602;11.046;2024-02-21T00:21:40;2.13;;;1.93;;
3359;SDS011;1693;49.602;11.046;2024-02-21T00:24:08;11.53;;;2.40;;
3359;SDS011;1693;49.602;11.046;2024-02-21T00:26:35;3.20;;;1.27;;
3359;SDS011;1693;49.602;11.046;2024-02-21T00:29:03;3.33;;;1.40;;
3359;SDS011;1693;49.602;11.046;2024-02-21T00:31:31;3.47;;;2.27;;
3359;SDS011;1693;49.602;11.046;2024-02-21T00:33:59;3.50;;;1.63;;
3359;SDS011;1693;49.602;11.046;2024-02-21T00:36:26;4.50;;;1.90;;
3359;SDS011;1693;49.602;11.046;2024-02-21T00:38:53;4.67;;;1.87;;
3359;SDS011;1693;49.602;11.046;2024-02-21T00:41:22;2.60;;;2.17;;
3359;SDS011;1693;49.602;11.046;2024-02-21T00:43:50;2.27;;;2.07;;
3359;SDS011;1693;49.602;11.046;2024-02-21T00:46:17;4.20;;;2.30;;
3359;SDS011;1693;49.602;11.046;2024-02-21T00:48:48;5.83;;;2.73;;
3359;SDS011;1693;49.602;11.046;2024-02-21T00:51:16;3.40;;;1.80;;
3359;SDS011;1693;49.602;11.046;2024-02-21T00:53:43;5.00;;;2.20;;
3359;SDS011;1693;49.602;11.046;2024-02-21T00:56:11;12.10;;;3.13;;
3359;SDS011;1693;49.602;11.046;2024-02-21T00:58:40;5.97;;;1.80;;
3359;SDS011;1693;49.602;11.046;2024-02-21T01:01:07;3.70;;;2.17;;
3359;SDS011;1693;49.602;11.046;2024-02-21T01:03:35;2.27;;;1.80;;
3359;SDS011;1693;49.602;11.046;2024-02-21T01:06:03;2.03;;;1.50;;
3359;SDS011;1693;49.602;11.046;2024-02-21T01:08:31;5.00;;;1.90;;
3359;SDS011;1693;49.602;11.046;2024-02-21T01:11:00;4.37;;;1.90;;
3359;SDS011;1693;49.602;11.046;2024-02-21T01:13:27;4.67;;;2.57;;
3359;SDS011;1693;49.602;11.046;2024-02-21T01:15:59;2.80;;;1.67;;
3359;SDS011;1693;49.602;11.046;2024-02-21T01:18:28;4.50;;;1.90;;
3359;SDS011;1693;49.602;11.046;2024-02-21T01:20:55;10.37;;;2.60;;
3359;SDS011;1693;49.602;11.046;2024-02-21T01:23:25;4.37;;;2.90;;
3359;SDS011;1693;49.602;11.046;2024-02-21T01:25:52;3.47;;;2.50;;
3359;SDS011;1693;49.602;11.046;2024-02-21T01:28:21;4.07;;;2.27;;
3359;SDS011;1693;49.602;11.046;2024-02-21T01:30:51;3.97;;;2.00;;
3359;SDS011;1693;49.602;11.046;2024-02-21T01:33:20;3.20;;;1.87;;
3359;SDS011;1693;49.602;11.046;2024-02-21T01:35:47;4.20;;;1.70;;
3359;SDS011;1693;49.602;11.046;2024-02-21T01:38:15;2.90;;;1.53;;
3359;SDS011;1693;49.602;11.046;2024-02-21T01:40:43;2.77;;;1.87;;
3359;SDS011;1693;49.602;11.046;2024-02-21T01:43:15;4.53;;;2.23;;
3359;SDS011;1693;49.602;11.046;2024-02-21T01:45:45;3.27;;;2.37;;
3359;SDS011;1693;49.602;11.046;2024-02-21T01:48:13;2.20;;;1.83;;
3359;SDS011;1693;49.602;11.046;2024-02-21T01:50:44;3.00;;;1.70;;
3359;SDS011;1693;49.602;11.046;2024-02-21T01:53:16;5.10;;;2.20;;
3359;SDS011;1693;49.602;11.046;2024-02-21T01:55:46;5.30;;;2.93;;
3359;SDS011;1693;49.602;11.046;2024-02-21T01:58:13;4.17;;;1.70;;
3359;SDS011;1693;49.602;11.046;2024-02-21T02:00:42;3.30;;;2.17;;
3359;SDS011;1693;49.602;11.046;2024-02-21T02:03:12;2.73;;;2.00;;
3359;SDS011;1693;49.602;11.046;2024-02-21T02:05:45;4.00;;;2.67;;
3359;SDS011;1693;49.602;11.046;2024-02-21T02:08:12;5.33;;;2.47;;
3359;SDS011;1693;49.602;11.046;2024-02-21T02:10:40;3.67;;;2.10;;
3359;SDS011;1693;49.602;11.046;2024-02-21T02:13:08;4.80;;;2.57;;
3359;SDS011;1693;49.602;11.046;2024-02-21T02:15:40;4.23;;;3.13;;
3359;SDS011;1693;49.602;11.046;2024-02-21T02:18:09;5.60;;;2.30;;
3359;SDS011;1693;49.602;11.046;2024-02-21T02:20:37;4.13;;;2.57;;
3359;SDS011;1693;49.602;11.046;2024-02-21T02:23:06;4.77;;;2.07;;
3359;SDS011;1693;49.602;11.046;2024-02-21T02:25:36;3.13;;;2.07;;
3359;SDS011;1693;49.602;11.046;2024-02-21T02:28:03;3.00;;;1.63;;
3359;SDS011;1693;49.602;11.046;2024-02-21T02:30:32;3.03;;;2.13;;
3359;SDS011;1693;49.602;11.046;2024-02-21T02:33:04;2.93;;;2.40;;
3359;SDS011;1693;49.602;11.046;2024-02-21T02:35:33;3.40;;;2.03;;
3359;SDS011;1693;49.602;11.046;2024-02-21T02:38:00;3.93;;;2.47;;
3359;SDS011;1693;49.602;11.046;2024-02-21T02:40:28;5.53;;;2.23;;
3359;SDS011;1693;49.602;11.046;2024-02-21T02:42:58;3.20;;;2.43;;
3359;SDS011;1693;49.602;11.046;2024-02-21T02:45:25;3.20;;;1.70;;
3359;SDS011;1693;49.602;11.046;2024-02-21T02:47:52;5.93;;;1.93;;
3359;SDS011;1693;49.602;11.046;2024-02-21T02:50:20;3.53;;;2.03;;
3359;SDS011;1693;49.602;11.046;2024-02-21T02:52:47;2.63;;;2.43;;
3359;SDS011;1693;49.602;11.046;2024-02-21T02:55:15;3.10;;;2.13;;
3359;SDS011;1693;49.602;11.046;2024-02-21T02:57:43;5.40;;;2.60;;
3359;SDS011;1693;49.602;11.046;2024-02-21T03:00:14;4.73;;;1.90;;
3359;SDS011;1693;49.602;11.046;2024-02-21T03:02:54;2.13;;;1.90;;
3359;SDS011;1693;49.602;11.046;2024-02-21T03:05:21;2.13;;;1.80;;
3359;SDS011;1693;49.602;11.046;2024-02-21T03:07:49;4.40;;;2.40;;
3359;SDS011;1693;49.602;11.046;2024-02-21T03:10:17;5.93;;;1.77;;
3359;SDS011;1693;49.602;11.046;2024-02-21T03:12:44;7.17;;;2.47;;
3359;SDS011;1693;49.602;11.046;2024-02-21T03:15:14;2.50;;;2.07;;
3359;SDS011;1693;49.602;11.046;2024-02-21T03:17:41;2.63;;;2.40;;
3359;SDS011;1693;49.602;11.046;2024-02-21T03:20:11;6.93;;;3.53;;
3359;SDS011;1693;49.602;11.046;2024-02-21T03:22:38;2.70;;;1.70;;
3359;SDS011;1693;49.602;11.046;2024-02-21T03:25:08;2.53;;;1.80;;
3359;SDS011;1693;49.602;11.046;2024-02-21T03:27:36;3.50;;;2.30;;
3359;SDS011;1693;49.602;11.046;2024-02-21T03:30:05;5.47;;;1.67;;
3359;SDS011;1693;49.602;11.046;2024-02-21T03:32:36;4.77;;;2.47;;
3359;SDS011;1693;49.602;11.046;2024-02-21T03:35:04;2.23;;;2.03;;
3359;SDS011;1693;49.602;11.046;2024-02-21T03:37:32;3.70;;;2.03;;
3359;SDS011;1693;49.602;11.046;2024-02-21T03:39:59;3.83;;;2.97;;
3359;SDS011;1693;49.602;11.046;2024-02-21T03:42:27;3.70;;;1.77;;
3359;SDS011;1693;49.602;11.046;2024-02-21T03:44:56;3.50;;;2.40;;
3359;SDS011;1693;49.602;11.046;2024-02-21T03:47:23;2.43;;;1.93;;
3359;SDS011;1693;49.602;11.046;2024-02-21T03:49:53;4.47;;;2.23;;
3359;SDS011;1693;49.602;11.046;2024-02-21T03:52:20;4.83;;;1.70;;
3359;SDS011;1693;49.602;11.046;2024-02-21T03:54:53;3.30;;;2.50;;
3359;SDS011;1693;49.602;11.046;2024-02-21T03:57:21;9.90;;;2.60;;
3359;SDS011;1693;49.602;11.046;2024-02-21T03:59:50;3.67;;;2.00;;
3359;SDS011;1693;49.602;11.046;2024-02-21T04:02:17;3.83;;;2.37;;
3359;SDS011;1693;49.602;11.046;2024-02-21T04:04:44;5.50;;;2.20;;
3359;SDS011;1693;49.602;11.046;2024-02-21T04:07:15;5.83;;;2.43;;
3359;SDS011;1693;49.602;11.046;2024-02-21T04:09:43;2.90;;;2.17;;
3359;SDS011;1693;49.602;11.046;2024-02-21T04:12:10;2.40;;;1.57;;
3359;SDS011;1693;49.602;11.046;2024-02-21T04:14:37;4.60;;;1.80;;
3359;SDS011;1693;49.602;11.046;2024-02-21T04:17:06;2.40;;;1.90;;
3359;SDS011;1693;49.602;11.046;2024-02-21T04:19:33;4.60;;;2.23;;
3359;SDS011;1693;49.602;11.046;2024-02-21T04:22:00;3.33;;;1.57;;
3359;SDS011;1693;49.602;11.046;2024-02-21T04:24:32;4.57;;;2.30;;
3359;SDS011;1693;49.602;11.046;2024-02-21T04:27:00;2.30;;;1.80;;
3359;SDS011;1693;49.602;11.046;2024-02-21T04:29:27;2.97;;;2.17;;
3359;SDS011;1693;49.602;11.046;2024-02-21T04:31:55;4.23;;;2.50;;
3359;SDS011;1693;49.602;11.046;2024-02-21T04:34:22;2.97;;;2.10;;
3359;SDS011;1693;49.602;11.046;2024-02-21T04:36:49;2.10;;;1.73;;
3359;SDS011;1693;49.602;11.046;2024-02-21T04:39:18;4.90;;;1.90;;
3359;SDS011;1693;49.602;11.046;2024-02-21T04:41:47;4.00;;;2.23;;
3359;SDS011;1693;49.602;11.046;2024-02-21T04:44:14;2.57;;;2.13;;
3359;SDS011;1693;49.602;11.046;2024-02-21T04:46:42;7.63;;;3.50;;
3359;SDS011;1693;49.602;11.046;2024-02-21T04:49:11;2.40;;;2.07;;
3359;SDS011;1693;49.602;11.046;2024-02-21T04:51:39;2.20;;;1.63;;
3359;SDS011;1693;49.602;11.046;2024-02-21T04:54:06;4.93;;;2.13;;
3359;SDS011;1693;49.602;11.046;2024-02-21T04:56:34;8.47;;;2.70;;
3359;SDS011;1693;49.602;11.046;2024-02-21T04:59:02;3.27;;;2.30;;
3359;SDS011;1693;49.602;11.046;2024-02-21T05:01:31;9.60;;;2.83;;
3359;SDS011;1693;49.602;11.046;2024-02-21T05:03:59;7.50;;;3.00;;
3359;SDS011;1693;49.602;11.046;2024-02-21T05:06:27;2.27;;;2.07;;
3359;SDS011;1693;49.602;11.046;2024-02-21T05:08:55;2.73;;;2.47;;
3359;SDS011;1693;49.602;11.046;2024-02-21T05:11:23;3.60;;;2.40;;
3359;SDS011;1693;49.602;11.046;2024-02-21T05:13:50;4.13;;;2.97;;
3359;SDS011;1693;49.602;11.046;2024-02-21T05:16:19;2.77;;;1.87;;
3359;SDS011;1693;49.602;11.046;2024-02-21T05:18:47;14.03;;;2.47;;
3359;SDS011;1693;49.602;11.046;2024-02-21T05:21:14;2.30;;;2.00;;
3359;SDS011;1693;49.602;11.046;2024-02-21T05:23:42;3.30;;;2.20;;
3359;SDS011;1693;49.602;11.046;2024-02-21T05:26:09;3.40;;;3.00;;
3359;SDS011;1693;49.602;11.046;2024-02-21T05:28:36;3.20;;;2.37;;
3359;SDS011;1693;49.602;11.046;2024-02-21T05:31:04;4.30;;;2.67;;
3359;SDS011;1693;49.602;11.046;2024-02-21T05:33:33;4.40;;;3.10;;
3359;SDS011;1693;49.602;11.046;2024-02-21T05:36:01;5.90;;;2.90;;
3359;SDS011;1693;49.602;11.046;2024-02-21T05:44:35;4.07;;;1.70;;
3359;SDS011;1693;49.602;11.046;2024-02-21T05:47:04;2.63;;;1.70;;
3359;SDS011;1693;49.602;11.046;2024-02-21T05:49:39;5.97;;;2.40;;
3359;SDS011;1693;49.602;11.046;2024-02-21T05:52:06;3.27;;;2.80;;
3359;SDS011;1693;49.602;11.046;2024-02-21T05:54:33;5.70;;;2.50;;
3359;SDS011;1693;49.602;11.046;2024-02-21T05:57:02;3.40;;;3.10;;
3359;SDS011;1693;49.602;11.046;2024-02-21T05:59:32;3.07;;;2.77;;
3359;SDS011;1693;49.602;11.046;2024-02-21T06:02:01;5.70;;;3.00;;
3359;SDS011;1693;49.602;11.046;2024-02-21T06:04:30;3.80;;;2.43;;
3359;SDS011;1693;49.602;11.046;2024-02-21T06:07:01;4.90;;;3.43;;
3359;SDS011;1693;49.602;11.046;2024-02-21T06:09:28;4.83;;;2.90;;
3359;SDS011;1693;49.602;11.046;2024-02-21T06:11:57;4.93;;;3.40;;
3359;SDS011;1693;49.602;11.046;2024-02-21T06:14:24;13.90;;;9.30;;
3359;SDS011;1693;49.602;11.046;2024-02-21T06:16:51;18.10;;;11.80;;
3359;SDS011;1693;49.602;11.046;2024-02-21T06:19:19;6.50;;;4.13;;
3359;SDS011;1693;49.602;11.046;2024-02-21T06:21:48;2.07;;;1.70;;
3359;SDS011;1693;49.602;11.046;2024-02-21T06:24:19;6.43;;;3.30;;
3359;SDS011;1693;49.602;11.046;2024-02-21T06:26:48;4.60;;;3.27;;
3359;SDS011;1693;49.602;11.046;2024-02-21T06:29:15;8.10;;;3.00;;
3359;SDS011;1693;49.602;11.046;2024-02-21T06:31:42;4.20;;;2.97;;
3359;SDS011;1693;49.602;11.046;2024-02-21T06:34:10;4.40;;;3.07;;
3359;SDS011;1693;49.602;11.046;2024-02-21T06:36:38;2.40;;;2.20;;
3359;SDS011;1693;49.602;11.046;2024-02-21T06:39:07;6.57;;;3.13;;
3359;SDS011;1693;49.602;11.046;2024-02-21T06:41:37;3.50;;;3.20;;
3359;SDS011;1693;49.602;11.046;2024-02-21T06:44:05;3.30;;;2.10;;
3359;SDS011;1693;49.602;11.046;2024-02-21T06:46:34;3.90;;;2.90;;
3359;SDS011;1693;49.602;11.046;2024-02-21T06:49:02;5.60;;;3.07;;
3359;SDS011;1693;49.602;11.046;2024-02-21T06:51:29;5.80;;;2.87;;
3359;SDS011;1693;49.602;11.046;2024-02-21T06:53:58;4.77;;;3.03;;
3359;SDS011;1693;49.602;11.046;2024-02-21T06:56:25;2.57;;;2.20;;
3359;SDS011;1693;49.602;11.046;2024-02-21T06:58:55;7.33;;;2.97;;
3359;SDS011;1693;49.602;11.046;2024-02-21T07:01:22;4.97;;;3.40;;
3359;SDS011;1693;49.602;11.046;2024-02-21T07:03:50;6.60;;;3.43;;
3359;SDS011;1693;49.602;11.046;2024-02-21T07:06:18;6.60;;;4.00;;
3359;SDS011;1693;49.602;11.046;2024-02-21T07:08:46;3.07;;;2.73;;
3359;SDS011;1693;49.602;11.046;2024-02-21T07:11:15;6.10;;;3.87;;
3359;SDS011;1693;49.602;11.046;2024-02-21T07:13:42;5.00;;;2.90;;
3359;SDS011;1693;49.602;11.046;2024-02-21T07:16:12;6.20;;;4.27;;
3359;SDS011;1693;49.602;11.046;2024-02-21T07:18:39;7.90;;;2.77;;
3359;SDS011;1693;49.602;11.046;2024-02-21T07:21:08;7.10;;;3.93;;
3359;SDS011;1693;49.602;11.046;2024-02-21T07:23:35;5.60;;;3.63;;
3359;SDS011;1693;49.602;11.046;2024-02-21T07:26:03;5.10;;;3.63;;
3359;SDS011;1693;49.602;11.046;2024-02-21T07:28:30;3.73;;;2.37;;
3359;SDS011;1693;49.602;11.046;2024-02-21T07:30:59;4.63;;;3.87;;
3359;SDS011;1693;49.602;11.046;2024-02-21T07:33:38;4.50;;;3.27;;
3359;SDS011;1693;49.602;11.046;2024-02-21T07:36:23;3.23;;;2.30;;
3359;SDS011;1693;49.602;11.046;2024-02-21T07:39:07;8.10;;;3.50;;
3359;SDS011;1693;49.602;11.046;2024-02-21T07:41:47;4.47;;;2.87;;
3359;SDS011;1693;49.602;11.046;2024-02-21T07:44:18;7.30;;;3.20;;
3359;SDS011;1693;49.602;11.046;2024-02-21T07:46:49;4.30;;;3.57;;
3359;SDS011;1693;49.602;11.046;2024-02-21T07:49:22;5.70;;;4.60;;
3359;SDS011;1693;49.602;11.046;2024-02-21T07:52:03;3.40;;;2.50;;
3359;SDS011;1693;49.602;11.046;2024-02-21T07:54:34;5.70;;;3.07;;
3359;SDS011;1693;49.602;11.046;2024-02-21T07:57:04;5.50;;;3.23;;
3359;SDS011;1693;49.602;11.046;2024-02-21T07:59:34;3.70;;;3.37;;
3359;SDS011;1693;49.602;11.046;2024-02-21T08:02:10;7.17;;;2.67;;
3359;SDS011;1693;49.602;11.046;2024-02-21T08:04:44;2.80;;;2.30;;
3359;SDS011;1693;49.602;11.046;2024-02-21T08:07:16;3.27;;;2.43;;
3359;SDS011;1693;49.602;11.046;2024-02-21T08:09:48;3.00;;;2.57;;
3359;SDS011;1693;49.602;11.046;2024-02-21T08:12:15;9.33;;;2.67;;
3359;SDS011;1693;49.602;11.046;2024-02-21T08:14:42;3.20;;;2.67;;
3359;SDS011;1693;49.602;11.046;2024-02-21T08:17:09;6.17;;;3.00;;
3359;SDS011;1693;49.602;11.046;2024-02-21T08:19:36;6.90;;;2.70;;
3359;SDS011;1693;49.602;11.046;2024-02-21T08:22:05;5.67;;;3.57;;
3359;SDS011;1693;49.602;11.046;2024-02-21T08:24:32;3.13;;;2.63;;
3359;SDS011;1693;49.602;11.046;2024-02-21T08:26:59;4.57;;;3.40;;
3359;SDS011;1693;49.602;11.046;2024-02-21T08:29:26;9.97;;;2.60;;
3359;SDS011;1693;49.602;11.046;2024-02-21T08:31:53;3.70;;;2.20;;
3359;SDS011;1693;49.602;11.046;2024-02-21T08:34:20;3.90;;;2.70;;
3359;SDS011;1693;49.602;11.046;2024-02-21T08:36:48;2.00;;;1.80;;
3359;SDS011;1693;49.602;11.046;2024-02-21T08:39:17;2.73;;;1.57;;
3359;SDS011;1693;49.602;11.046;2024-02-21T08:41:45;2.53;;;2.30;;
3359;SDS011;1693;49.602;11.046;2024-02-21T08:44:13;8.83;;;2.40;;
3359;SDS011;1693;49.602;11.046;2024-02-21T08:46:40;3.30;;;2.47;;
3359;SDS011;1693;49.602;11.046;2024-02-21T08:49:07;2.10;;;1.40;;
3359;SDS011;1693;49.602;11.046;2024-02-21T08:51:41;2.80;;;1.83;;
3359;SDS011;1693;49.602;11.046;2024-02-21T08:54:08;1.60;;;1.43;;
3359;SDS011;1693;49.602;11.046;2024-02-21T08:56:36;2.17;;;1.50;;
3359;SDS011;1693;49.602;11.046;2024-02-21T08:59:03;2.47;;;1.73;;
3359;SDS011;1693;49.602;11.046;2024-02-21T09:01:30;1.30;;;1.07;;
3359;SDS011;1693;49.602;11.046;2024-02-21T09:03:59;2.90;;;1.67;;
3359;SDS011;1693;49.602;11.046;2024-02-21T09:06:27;2.03;;;1.13;;
3359;SDS011;1693;49.602;11.046;2024-02-21T09:08:56;9.30;;;1.90;;
3359;SDS011;1693;49.602;11.046;2024-02-21T09:11:23;1.50;;;1.10;;
3359;SDS011;1693;49.602;11.046;2024-02-21T09:13:53;1.87;;;1.30;;
3359;SDS011;1693;49.602;11.046;2024-02-21T09:16:20;1.53;;;1.40;;
3359;SDS011;1693;49.602;11.046;2024-02-21T09:18:47;3.17;;;1.70;;
3359;SDS011;1693;49.602;11.046;2024-02-21T09:21:15;4.13;;;2.23;;
3359;SDS011;1693;49.602;11.046;2024-02-21T09:23:42;5.60;;;2.03;;
3359;SDS011;1693;49.602;11.046;2024-02-21T09:26:10;1.50;;;0.87;;
3359;SDS011;1693;49.602;11.046;2024-02-21T09:28:39;3.43;;;1.30;;
3359;SDS011;1693;49.602;11.046;2024-02-21T09:31:07;1.50;;;1.03;;
3359;SDS011;1693;49.602;11.046;2024-02-21T09:33:35;3.13;;;1.27;;
3359;SDS011;1693;49.602;11.046;2024-02-21T09:36:02;2.60;;;1.33;;
3359;SDS011;1693;49.602;11.046;2024-02-21T09:38:30;1.20;;;1.00;;
3359;SDS011;1693;49.602;11.046;2024-02-21T09:40:58;3.20;;;1.03;;
3359;SDS011;1693;49.602;11.046;2024-02-21T09:43:26;6.50;;;1.57;;
3359;SDS011;1693;49.602;11.046;2024-02-21T09:45:54;3.13;;;0.97;;
3359;SDS011;1693;49.602;11.046;2024-02-21T09:48:29;4.50;;;1.53;;
3359;SDS011;1693;49.602;11.046;2024-02-21T09:50:57;5.27;;;1.53;;
3359;SDS011;1693;49.602;11.046;2024-02-21T09:53:25;3.13;;;1.10;;
3359;SDS011;1693;49.602;11.046;2024-02-21T09:55:54;3.00;;;1.50;;
3359;SDS011;1693;49.602;11.046;2024-02-21T09:58:22;1.10;;;1.00;;
3359;SDS011;1693;49.602;11.046;2024-02-21T10:00:52;1.73;;;1.10;;
3359;SDS011;1693;49.602;11.046;2024-02-21T10:03:20;2.00;;;1.13;;
3359;SDS011;1693;49.602;11.046;2024-02-21T10:05:51;2.00;;;1.10;;
3359;SDS011;1693;49.602;11.046;2024-02-21T10:08:21;2.70;;;1.13;;
3359;SDS011;1693;49.602;11.046;2024-02-21T10:10:50;1.10;;;0.97;;
3359;SDS011;1693;49.602;11.046;2024-02-21T10:13:24;4.50;;;1.40;;
3359;SDS011;1693;49.602;11.046;2024-02-21T10:16:06;1.40;;;1.00;;
3359;SDS011;1693;49.602;11.046;2024-02-21T10:18:35;2.53;;;1.20;;
3359;SDS011;1693;49.602;11.046;2024-02-21T10:21:04;2.80;;;1.23;;
3359;SDS011;1693;49.602;11.046;2024-02-21T10:23:42;7.27;;;1.20;;
3359;SDS011;1693;49.602;11.046;2024-02-21T10:26:13;2.13;;;1.40;;
3359;SDS011;1693;49.602;11.046;2024-02-21T10:28:41;1.87;;;1.10;;
3359;SDS011;1693;49.602;11.046;2024-02-21T10:31:10;2.03;;;1.47;;
3359;SDS011;1693;49.602;11.046;2024-02-21T10:33:41;1.63;;;1.40;;
3359;SDS011;1693;49.602;11.046;2024-02-21T10:36:10;4.10;;;1.33;;
3359;SDS011;1693;49.602;11.046;2024-02-21T10:38:38;2.07;;;1.27;;
3359;SDS011;1693;49.602;11.046;2024-02-21T10:41:05;2.23;;;1.53;;
3359;SDS011;1693;49.602;11.046;2024-02-21T10:43:39;2.23;;;1.10;;
3359;SDS011;1693;49.602;11.046;2024-02-21T10:46:07;1.40;;;1.20;;
3359;SDS011;1693;49.602;11.046;2024-02-21T10:48:42;2.10;;;1.70;;
3359;SDS011;1693;49.602;11.046;2024-02-21T10:51:17;4.40;;;1.23;;
3359;SDS011;1693;49.602;11.046;2024-02-21T10:53:47;2.37;;;1.27;;
3359;SDS011;1693;49.602;11.046;2024-02-21T10:56:21;4.50;;;1.47;;
3359;SDS011;1693;49.602;11.046;2024-02-21T10:58:50;3.27;;;1.37;;
3359;SDS011;1693;49.602;11.046;2024-02-21T11:01:18;2.43;;;1.23;;
3359;SDS011;1693;49.602;11.046;2024-02-21T11:03:45;2.00;;;1.30;;
3359;SDS011;1693;49.602;11.046;2024-02-21T11:06:14;6.80;;;1.47;;
3359;SDS011;1693;49.602;11.046;2024-02-21T11:08:43;6.30;;;1.17;;
3359;SDS011;1693;49.602;11.046;2024-02-21T11:11:12;2.33;;;1.10;;
3359;SDS011;1693;49.602;11.046;2024-02-21T11:13:44;4.10;;;1.47;;
3359;SDS011;1693;49.602;11.046;2024-02-21T11:16:12;4.47;;;1.60;;
3359;SDS011;1693;49.602;11.046;2024-02-21T11:18:48;3.30;;;1.83;;
3359;SDS011;1693;49.602;11.046;2024-02-21T11:21:15;1.47;;;1.03;;
3359;SDS011;1693;49.602;11.046;2024-02-21T11:23:44;5.43;;;1.33;;
3359;SDS011;1693;49.602;11.046;2024-02-21T11:26:21;4.40;;;1.27;;
3359;SDS011;1693;49.602;11.046;2024-02-21T11:28:55;2.03;;;1.30;;
3359;SDS011;1693;49.602;11.046;2024-02-21T11:31:23;1.07;;;0.80;;
3359;SDS011;1693;49.602;11.046;2024-02-21T11:33:52;3.23;;;1.20;;
3359;SDS011;1693;49.602;11.046;2024-02-21T11:36:23;2.00;;;0.90;;
3359;SDS011;1693;49.602;11.046;2024-02-21T11:38:52;3.83;;;0.90;;
3359;SDS011;1693;49.602;11.046;2024-02-21T11:41:21;1.63;;;1.20;;
3359;SDS011;1693;49.602;11.046;2024-02-21T11:43:51;1.30;;;0.97;;
3359;SDS011;1693;49.602;11.046;2024-02-21T11:46:24;1.40;;;1.10;;
3359;SDS011;1693;49.602;11.046;2024-02-21T11:48:53;1.40;;;0.90;;
3359;SDS011;1693;49.602;11.046;2024-02-21T11:51:21;1.83;;;1.20;;
3359;SDS011;1693;49.602;11.046;2024-02-21T11:53:49;1.93;;;1.10;;
3359;SDS011;1693;49.602;11.046;2024-02-21T11:56:18;1.63;;;1.40;;
3359;SDS011;1693;49.602;11.046;2024-02-21T11:58:46;2.40;;;1.00;;
3359;SDS011;1693;49.602;11.046;2024-02-21T12:01:13;1.00;;;0.80;;
3359;SDS011;1693;49.602;11.046;2024-02-21T12:03:40;1.83;;;0.90;;
3359;SDS011;1693;49.602;11.046;2024-02-21T12:06:14;3.00;;;1.00;;
3359;SDS011;1693;49.602;11.046;2024-02-21T12:08:44;1.50;;;1.30;;
3359;SDS011;1693;49.602;11.046;2024-02-21T12:11:15;1.53;;;1.20;;
3359;SDS011;1693;49.602;11.046;2024-02-21T12:13:44;2.57;;;1.10;;
3359;SDS011;1693;49.602;11.046;2024-02-21T12:16:14;2.60;;;1.27;;
3359;SDS011;1693;49.602;11.046;2024-02-21T12:18:43;2.07;;;1.50;;
3359;SDS011;1693;49.602;11.046;2024-02-21T12:21:10;1.60;;;1.10;;
3359;SDS011;1693;49.602;11.046;2024-02-21T12:23:38;2.70;;;1.03;;
3359;SDS011;1693;49.602;11.046;2024-02-21T12:26:05;1.27;;;0.97;;
3359;SDS011;1693;49.602;11.046;2024-02-21T12:28:33;1.37;;;0.93;;
3359;SDS011;1693;49.602;11.046;2024-02-21T12:31:04;1.10;;;0.80;;
3359;SDS011;1693;49.602;11.046;2024-02-21T12:33:34;2.57;;;1.50;;
3359;SDS011;1693;49.602;11.046;2024-02-21T12:36:03;1.47;;;1.17;;
3359;SDS011;1693;49.602;11.046;2024-02-21T12:38:30;1.57;;;1.30;;
3359;SDS011;1693;49.602;11.046;2024-02-21T12:40:59;1.93;;;1.10;;
3359;SDS011;1693;49.602;11.046;2024-02-21T12:43:28;2.40;;;1.50;;
3359;SDS011;1693;49.602;11.046;2024-02-21T12:45:55;1.10;;;0.93;;
3359;SDS011;1693;49.602;11.046;2024-02-21T12:48:24;2.20;;;1.10;;
3359;SDS011;1693;49.602;11.046;2024-02-21T12:50:51;1.40;;;0.90;;
3359;SDS011;1693;49.602;11.046;2024-02-21T12:53:19;2.83;;;1.50;;
3359;SDS011;1693;49.602;11.046;2024-02-21T12:55:48;1.40;;;1.07;;
3359;SDS011;1693;49.602;11.046;2024-02-21T12:58:18;1.77;;;1.57;;
3359;SDS011;1693;49.602;11.046;2024-02-21T13:00:46;2.23;;;1.00;;
3359;SDS011;1693;49.602;11.046;2024-02-21T13:03:13;3.03;;;1.00;;
3359;SDS011;1693;49.602;11.046;2024-02-21T13:05:42;1.33;;;0.90;;
3359;SDS011;1693;49.602;11.046;2024-02-21T13:08:09;2.23;;;1.33;;
3359;SDS011;1693;49.602;11.046;2024-02-21T13:10:37;1.60;;;1.03;;
3359;SDS011;1693;49.602;11.046;2024-02-21T13:13:05;1.50;;;1.00;;
3359;SDS011;1693;49.602;11.046;2024-02-21T13:15:33;3.50;;;1.03;;
3359;SDS011;1693;49.602;11.046;2024-02-21T13:18:04;2.27;;;1.43;;
3359;SDS011;1693;49.602;11.046;2024-02-21T13:20:37;3.40;;;1.43;;
3359;SDS011;1693;49.602;11.046;2024-02-21T13:25:59;1.40;;;1.13;;
3359;SDS011;1693;49.602;11.046;2024-02-21T13:28:26;1.23;;;0.83;;
3359;SDS011;1693;49.602;11.046;2024-02-21T13:30:53;1.37;;;0.90;;
3359;SDS011;1693;49.602;11.046;2024-02-21T13:33:21;1.73;;;1.13;;
3359;SDS011;1693;49.602;11.046;2024-02-21T13:35:50;2.03;;;1.67;;
3359;SDS011;1693;49.602;11.046;2024-02-21T13:38:22;1.00;;;0.80;;
3359;SDS011;1693;49.602;11.046;2024-02-21T13:40:53;4.13;;;1.27;;
3359;SDS011;1693;49.602;11.046;2024-02-21T13:43:25;1.60;;;0.90;;
3359;SDS011;1693;49.602;11.046;2024-02-21T13:45:56;1.30;;;0.80;;
3359;SDS011;1693;49.602;11.046;2024-02-21T13:48:25;2.80;;;0.90;;
3359;SDS011;1693;49.602;11.046;2024-02-21T13:50:56;2.60;;;0.93;;
3359;SDS011;1693;49.602;11.046;2024-02-21T13:53:27;5.23;;;1.40;;
3359;SDS011;1693;49.602;11.046;2024-02-21T13:55:57;4.53;;;1.20;;
3359;SDS011;1693;49.602;11.046;2024-02-21T13:58:33;2.30;;;1.00;;
3359;SDS011;1693;49.602;11.046;2024-02-21T14:01:03;1.87;;;0.80;;
3359;SDS011;1693;49.602;11.046;2024-02-21T14:03:32;1.93;;;1.20;;
3359;SDS011;1693;49.602;11.046;2024-02-21T14:06:00;1.30;;;1.10;;
3359;SDS011;1693;49.602;11.046;2024-02-21T14:08:30;1.30;;;1.00;;
3359;SDS011;1693;49.602;11.046;2024-02-21T14:10:59;1.00;;;0.60;;
3359;SDS011;1693;49.602;11.046;2024-02-21T14:13:27;1.10;;;0.83;;
3359;SDS011;1693;49.602;11.046;2024-02-21T14:15:58;2.77;;;1.20;;
3359;SDS011;1693;49.602;11.046;2024-02-21T14:18:25;1.10;;;0.87;;
3359;SDS011;1693;49.602;11.046;2024-02-21T14:20:54;1.93;;;1.60;;
3359;SDS011;1693;49.602;11.046;2024-02-21T14:23:22;1.20;;;1.00;;
3359;SDS011;1693;49.602;11.046;2024-02-21T14:25:51;3.50;;;1.40;;
3359;SDS011;1693;49.602;11.046;2024-02-21T14:28:19;1.30;;;0.90;;
3359;SDS011;1693;49.602;11.046;2024-02-21T14:30:48;3.00;;;1.10;;
3359;SDS011;1693;49.602;11.046;2024-02-21T14:33:23;1.40;;;0.70;;
3359;SDS011;1693;49.602;11.046;2024-02-21T14:35:54;1.20;;;0.90;;
3359;SDS011;1693;49.602;11.046;2024-02-21T14:38:23;1.10;;;0.70;;
3359;SDS011;1693;49.602;11.046;2024-02-21T14:41:08;1.33;;;0.77;;
3359;SDS011;1693;49.602;11.046;2024-02-21T14:43:49;1.83;;;1.30;;
3359;SDS011;1693;49.602;11.046;2024-02-21T14:46:30;1.20;;;0.83;;
3359;SDS011;1693;49.602;11.046;2024-02-21T14:48:59;1.20;;;1.00;;
3359;SDS011;1693;49.602;11.046;2024-02-21T14:51:26;1.13;;;0.90;;
3359;SDS011;1693;49.602;11.046;2024-02-21T14:53:54;2.27;;;1.30;;
3359;SDS011;1693;49.602;11.046;2024-02-21T14:56:21;1.83;;;1.00;;
3359;SDS011;1693;49.602;11.046;2024-02-21T14:58:48;1.10;;;0.70;;
3359;SDS011;1693;49.602;11.046;2024-02-21T15:01:15;2.23;;;1.30;;
3359;SDS011;1693;49.602;11.046;2024-02-21T15:03:43;3.33;;;1.23;;
3359;SDS011;1693;49.602;11.046;2024-02-21T15:06:11;8.30;;;1.00;;
3359;SDS011;1693;49.602;11.046;2024-02-21T15:08:38;1.90;;;1.10;;
3359;SDS011;1693;49.602;11.046;2024-02-21T15:11:06;1.50;;;0.83;;
3359;SDS011;1693;49.602;11.046;2024-02-21T15:13:34;1.50;;;1.17;;
3359;SDS011;1693;49.602;11.046;2024-02-21T15:16:02;3.60;;;1.10;;
3359;SDS011;1693;49.602;11.046;2024-02-21T15:18:31;1.10;;;0.80;;
3359;SDS011;1693;49.602;11.046;2024-02-21T15:21:05;1.43;;;0.83;;